sensor_id;sensor_type;location;lat;lon;timestamp;temperature;humidity
8591;DHT22;4333;48.322;14.340;2022-09-09T00:04:45;13.00;99.90
8591;DHT22;4333;48.322;14.340;2022-09-09T00:15:38;13.10;99.90
8591;DHT22;4333;48.322;14.340;2022-09-09T00:18:32;13.10;99.90
8591;DHT22;4333;48.322;14.340;2022-09-09T00:21:14;13.10;99.90
8591;DHT22;4333;48.322;14.340;2022-09-09T00:24:08;13.20;99.90
8591;DHT22;4333;48.322;14.340;2022-09-09T00:26:47;13.10;99.90
8591;DHT22;4333;48.322;14.340;2022-09-09T00:30:20;13.00;99.90
8591;DHT22;4333;48.322;14.340;2022-09-09T00:32:20;13.00;99.90
8591;DHT22;4333;48.322;14.340;2022-09-09T00:34:56;12.80;99.90
8591;DHT22;4333;48.322;14.340;2022-09-09T00:37:28;12.70;99.90
8591;DHT22;4333;48.322;14.340;2022-09-09T00:40:01;12.60;99.90
8591;DHT22;4333;48.322;14.340;2022-09-09T00:42:45;12.60;99.90
8591;DHT22;4333;48.322;14.340;2022-09-09T00:57:25;12.40;99.90
8591;DHT22;4333;48.322;14.340;2022-09-09T01:00:20;12.30;99.90
8591;DHT22;4333;48.322;14.340;2022-09-09T01:06:32;12.20;99.90
8591;DHT22;4333;48.322;14.340;2022-09-09T01:15:03;12.20;99.90
8591;DHT22;4333;48.322;14.340;2022-09-09T01:18:13;12.10;99.90
8591;DHT22;4333;48.322;14.340;2022-09-09T01:28:46;12.20;99.90
8591;DHT22;4333;48.322;14.340;2022-09-09T01:31:28;12.20;99.90
8591;DHT22;4333;48.322;14.340;2022-09-09T01:34:14;12.20;99.90
8591;DHT22;4333;48.322;14.340;2022-09-09T01:37:18;12.10;99.90
8591;DHT22;4333;48.322;14.340;2022-09-09T01:40:12;12.10;99.90
8591;DHT22;4333;48.322;14.340;2022-09-09T01:43:29;12.10;99.90
8591;DHT22;4333;48.322;14.340;2022-09-09T01:46:44;12.10;99.90
8591;DHT22;4333;48.322;14.340;2022-09-09T01:49:24;12.10;99.90
8591;DHT22;4333;48.322;14.340;2022-09-09T01:52:15;12.00;99.90
8591;DHT22;4333;48.322;14.340;2022-09-09T01:54:59;12.00;99.90
8591;DHT22;4333;48.322;14.340;2022-09-09T01:57:50;11.90;99.90
8591;DHT22;4333;48.322;14.340;2022-09-09T02:00:31;11.90;99.90
8591;DHT22;4333;48.322;14.340;2022-09-09T02:08:39;11.90;99.90
8591;DHT22;4333;48.322;14.340;2022-09-09T02:11:13;11.90;99.90
8591;DHT22;4333;48.322;14.340;2022-09-09T02:13:46;11.90;99.90
8591;DHT22;4333;48.322;14.340;2022-09-09T02:16:27;11.90;99.90
8591;DHT22;4333;48.322;14.340;2022-09-09T02:22:09;11.90;99.90
8591;DHT22;4333;48.322;14.340;2022-09-09T02:24:39;11.90;99.90
8591;DHT22;4333;48.322;14.340;2022-09-09T02:27:09;11.90;99.90
8591;DHT22;4333;48.322;14.340;2022-09-09T02:29:42;11.90;99.90
8591;DHT22;4333;48.322;14.340;2022-09-09T02:32:20;11.90;99.90
8591;DHT22;4333;48.322;14.340;2022-09-09T02:34:56;11.90;99.90
8591;DHT22;4333;48.322;14.340;2022-09-09T02:37:37;11.90;99.90
8591;DHT22;4333;48.322;14.340;2022-09-09T02:40:07;11.80;99.90
8591;DHT22;4333;48.322;14.340;2022-09-09T02:42:47;11.80;99.90
8591;DHT22;4333;48.322;14.340;2022-09-09T02:45:20;11.80;99.90
8591;DHT22;4333;48.322;14.340;2022-09-09T02:50:45;11.80;99.90
8591;DHT22;4333;48.322;14.340;2022-09-09T02:53:31;11.80;99.90
8591;DHT22;4333;48.322;14.340;2022-09-09T02:56:13;11.80;99.90
8591;DHT22;4333;48.322;14.340;2022-09-09T02:58:44;11.70;99.90
8591;DHT22;4333;48.322;14.340;2022-09-09T03:01:12;11.70;99.90
8591;DHT22;4333;48.322;14.340;2022-09-09T03:03:40;11.70;99.90
8591;DHT22;4333;48.322;14.340;2022-09-09T03:06:10;11.70;99.90
8591;DHT22;4333;48.322;14.340;2022-09-09T03:08:39;11.60;99.90
8591;DHT22;4333;48.322;14.340;2022-09-09T03:11:16;11.60;99.90
8591;DHT22;4333;48.322;14.340;2022-09-09T03:13:46;11.60;99.90
8591;DHT22;4333;48.322;14.340;2022-09-09T03:16:16;11.60;99.90
8591;DHT22;4333;48.322;14.340;2022-09-09T03:18:45;11.60;99.90
8591;DHT22;4333;48.322;14.340;2022-09-09T03:21:15;11.60;99.90
8591;DHT22;4333;48.322;14.340;2022-09-09T03:23:45;11.60;99.90
8591;DHT22;4333;48.322;14.340;2022-09-09T03:26:17;11.60;99.90
8591;DHT22;4333;48.322;14.340;2022-09-09T03:28:47;11.60;99.90
8591;DHT22;4333;48.322;14.340;2022-09-09T03:31:18;11.60;99.90
8591;DHT22;4333;48.322;14.340;2022-09-09T03:33:48;11.70;99.90
8591;DHT22;4333;48.322;14.340;2022-09-09T03:36:20;11.80;99.90
8591;DHT22;4333;48.322;14.340;2022-09-09T03:38:51;11.90;99.90
8591;DHT22;4333;48.322;14.340;2022-09-09T03:41:21;11.90;99.90
8591;DHT22;4333;48.322;14.340;2022-09-09T03:43:52;11.90;99.90
8591;DHT22;4333;48.322;14.340;2022-09-09T03:46:24;12.00;99.90
8591;DHT22;4333;48.322;14.340;2022-09-09T03:48:54;12.00;99.90
8591;DHT22;4333;48.322;14.340;2022-09-09T03:51:23;12.00;99.90
8591;DHT22;4333;48.322;14.340;2022-09-09T03:53:52;11.90;99.90
8591;DHT22;4333;48.322;14.340;2022-09-09T03:56:22;11.90;99.90
8591;DHT22;4333;48.322;14.340;2022-09-09T03:58:51;11.80;99.90
8591;DHT22;4333;48.322;14.340;2022-09-09T04:01:22;11.90;99.90
8591;DHT22;4333;48.322;14.340;2022-09-09T04:03:55;12.00;99.90
8591;DHT22;4333;48.322;14.340;2022-09-09T04:06:25;12.00;99.90
8591;DHT22;4333;48.322;14.340;2022-09-09T04:08:58;12.00;99.90
8591;DHT22;4333;48.322;14.340;2022-09-09T04:11:31;12.10;99.90
8591;DHT22;4333;48.322;14.340;2022-09-09T04:14:00;12.00;99.90
8591;DHT22;4333;48.322;14.340;2022-09-09T04:16:30;12.00;99.90
8591;DHT22;4333;48.322;14.340;2022-09-09T04:18:57;12.10;99.90
8591;DHT22;4333;48.322;14.340;2022-09-09T04:21:26;12.10;99.90
8591;DHT22;4333;48.322;14.340;2022-09-09T04:23:53;12.30;99.90
8591;DHT22;4333;48.322;14.340;2022-09-09T04:26:22;12.30;99.90
8591;DHT22;4333;48.322;14.340;2022-09-09T04:28:50;12.40;99.90
8591;DHT22;4333;48.322;14.340;2022-09-09T04:31:20;12.40;99.90
8591;DHT22;4333;48.322;14.340;2022-09-09T04:33:49;12.50;99.90
8591;DHT22;4333;48.322;14.340;2022-09-09T04:36:18;12.40;99.90
8591;DHT22;4333;48.322;14.340;2022-09-09T04:38:46;12.50;99.90
8591;DHT22;4333;48.322;14.340;2022-09-09T04:41:17;12.50;99.90
8591;DHT22;4333;48.322;14.340;2022-09-09T04:43:46;12.50;99.90
8591;DHT22;4333;48.322;14.340;2022-09-09T04:46:14;12.60;99.90
8591;DHT22;4333;48.322;14.340;2022-09-09T04:48:44;12.60;99.90
8591;DHT22;4333;48.322;14.340;2022-09-09T04:51:14;12.70;99.90
8591;DHT22;4333;48.322;14.340;2022-09-09T04:53:42;12.60;99.90
8591;DHT22;4333;48.322;14.340;2022-09-09T04:56:13;12.70;99.90
8591;DHT22;4333;48.322;14.340;2022-09-09T04:58:40;12.60;99.90
8591;DHT22;4333;48.322;14.340;2022-09-09T05:01:14;12.60;99.90
8591;DHT22;4333;48.322;14.340;2022-09-09T05:03:45;12.70;99.90
8591;DHT22;4333;48.322;14.340;2022-09-09T05:06:18;12.80;99.90
8591;DHT22;4333;48.322;14.340;2022-09-09T05:09:15;12.80;99.90
8591;DHT22;4333;48.322;14.340;2022-09-09T05:11:44;12.80;99.90
8591;DHT22;4333;48.322;14.340;2022-09-09T05:14:13;12.80;99.90
8591;DHT22;4333;48.322;14.340;2022-09-09T05:16:42;12.90;99.90
8591;DHT22;4333;48.322;14.340;2022-09-09T05:19:09;12.90;99.90
8591;DHT22;4333;48.322;14.340;2022-09-09T05:21:37;13.00;99.90
8591;DHT22;4333;48.322;14.340;2022-09-09T05:24:06;13.00;99.90
8591;DHT22;4333;48.322;14.340;2022-09-09T05:26:34;13.00;99.90
8591;DHT22;4333;48.322;14.340;2022-09-09T05:29:03;12.90;99.90
8591;DHT22;4333;48.322;14.340;2022-09-09T05:31:32;12.80;99.90
8591;DHT22;4333;48.322;14.340;2022-09-09T05:34:04;12.90;99.90
8591;DHT22;4333;48.322;14.340;2022-09-09T05:36:34;13.00;99.90
8591;DHT22;4333;48.322;14.340;2022-09-09T05:39:03;13.20;99.90
8591;DHT22;4333;48.322;14.340;2022-09-09T05:41:35;13.50;99.90
8591;DHT22;4333;48.322;14.340;2022-09-09T05:44:04;13.60;99.90
8591;DHT22;4333;48.322;14.340;2022-09-09T05:46:33;13.60;99.90
8591;DHT22;4333;48.322;14.340;2022-09-09T05:49:03;13.70;99.90
8591;DHT22;4333;48.322;14.340;2022-09-09T05:51:33;13.60;99.90
8591;DHT22;4333;48.322;14.340;2022-09-09T05:54:04;13.70;99.90
8591;DHT22;4333;48.322;14.340;2022-09-09T05:56:34;13.80;99.90
8591;DHT22;4333;48.322;14.340;2022-09-09T05:59:03;13.80;99.90
8591;DHT22;4333;48.322;14.340;2022-09-09T06:01:34;13.90;99.90
8591;DHT22;4333;48.322;14.340;2022-09-09T06:04:03;14.10;99.90
8591;DHT22;4333;48.322;14.340;2022-09-09T06:06:36;14.10;99.90
8591;DHT22;4333;48.322;14.340;2022-09-09T06:09:08;14.20;99.90
8591;DHT22;4333;48.322;14.340;2022-09-09T06:11:43;14.30;99.90
8591;DHT22;4333;48.322;14.340;2022-09-09T06:14:12;14.70;99.90
8591;DHT22;4333;48.322;14.340;2022-09-09T06:16:39;14.90;99.90
8591;DHT22;4333;48.322;14.340;2022-09-09T06:19:09;15.20;99.90
8591;DHT22;4333;48.322;14.340;2022-09-09T06:21:39;15.30;99.90
8591;DHT22;4333;48.322;14.340;2022-09-09T06:24:09;15.60;99.90
8591;DHT22;4333;48.322;14.340;2022-09-09T06:26:44;16.10;99.90
8591;DHT22;4333;48.322;14.340;2022-09-09T06:29:13;16.00;99.90
8591;DHT22;4333;48.322;14.340;2022-09-09T06:31:42;15.80;99.90
8591;DHT22;4333;48.322;14.340;2022-09-09T06:34:11;15.90;99.90
8591;DHT22;4333;48.322;14.340;2022-09-09T06:36:41;16.10;99.90
8591;DHT22;4333;48.322;14.340;2022-09-09T06:39:13;16.00;99.90
8591;DHT22;4333;48.322;14.340;2022-09-09T06:41:44;16.00;99.90
8591;DHT22;4333;48.322;14.340;2022-09-09T06:44:14;16.30;99.90
8591;DHT22;4333;48.322;14.340;2022-09-09T06:46:46;16.70;99.90
8591;DHT22;4333;48.322;14.340;2022-09-09T06:49:21;17.20;99.90
8591;DHT22;4333;48.322;14.340;2022-09-09T06:51:50;17.10;99.90
8591;DHT22;4333;48.322;14.340;2022-09-09T06:54:19;17.50;99.90
8591;DHT22;4333;48.322;14.340;2022-09-09T06:56:51;17.90;99.90
8591;DHT22;4333;48.322;14.340;2022-09-09T06:59:20;17.60;99.90
8591;DHT22;4333;48.322;14.340;2022-09-09T07:01:49;17.00;99.90
8591;DHT22;4333;48.322;14.340;2022-09-09T07:04:19;16.60;99.90
8591;DHT22;4333;48.322;14.340;2022-09-09T07:06:50;17.70;99.90
8591;DHT22;4333;48.322;14.340;2022-09-09T07:09:20;19.20;99.90
8591;DHT22;4333;48.322;14.340;2022-09-09T07:11:51;21.50;99.90
8591;DHT22;4333;48.322;14.340;2022-09-09T07:14:23;23.00;99.90
8591;DHT22;4333;48.322;14.340;2022-09-09T07:16:53;24.00;99.90
8591;DHT22;4333;48.322;14.340;2022-09-09T07:19:22;25.10;99.90
8591;DHT22;4333;48.322;14.340;2022-09-09T07:21:53;25.80;99.90
8591;DHT22;4333;48.322;14.340;2022-09-09T07:24:22;24.20;98.40
8591;DHT22;4333;48.322;14.340;2022-09-09T07:26:51;21.60;99.90
8591;DHT22;4333;48.322;14.340;2022-09-09T07:29:19;20.10;99.90
8591;DHT22;4333;48.322;14.340;2022-09-09T07:31:46;18.80;99.90
8591;DHT22;4333;48.322;14.340;2022-09-09T07:34:15;17.90;99.90
8591;DHT22;4333;48.322;14.340;2022-09-09T07:36:43;17.70;99.90
8591;DHT22;4333;48.322;14.340;2022-09-09T07:39:11;17.80;99.90
8591;DHT22;4333;48.322;14.340;2022-09-09T07:41:42;18.30;99.90
8591;DHT22;4333;48.322;14.340;2022-09-09T07:44:11;18.60;99.90
8591;DHT22;4333;48.322;14.340;2022-09-09T07:46:38;18.60;99.90
8591;DHT22;4333;48.322;14.340;2022-09-09T07:49:10;18.70;99.90
8591;DHT22;4333;48.322;14.340;2022-09-09T07:51:40;18.80;99.90
8591;DHT22;4333;48.322;14.340;2022-09-09T07:54:08;18.60;99.90
8591;DHT22;4333;48.322;14.340;2022-09-09T07:56:35;18.10;99.90
8591;DHT22;4333;48.322;14.340;2022-09-09T07:59:03;18.20;99.90
8591;DHT22;4333;48.322;14.340;2022-09-09T08:01:35;18.30;99.90
8591;DHT22;4333;48.322;14.340;2022-09-09T08:04:15;18.30;99.90
8591;DHT22;4333;48.322;14.340;2022-09-09T08:06:45;18.20;99.90
8591;DHT22;4333;48.322;14.340;2022-09-09T08:09:12;18.30;99.90
8591;DHT22;4333;48.322;14.340;2022-09-09T08:11:40;18.40;99.90
8591;DHT22;4333;48.322;14.340;2022-09-09T08:14:08;18.30;99.90
8591;DHT22;4333;48.322;14.340;2022-09-09T08:16:39;18.30;99.90
8591;DHT22;4333;48.322;14.340;2022-09-09T08:19:07;17.60;99.90
8591;DHT22;4333;48.322;14.340;2022-09-09T08:21:39;17.20;99.90
8591;DHT22;4333;48.322;14.340;2022-09-09T08:24:07;16.90;99.90
8591;DHT22;4333;48.322;14.340;2022-09-09T08:26:41;16.80;99.90
8591;DHT22;4333;48.322;14.340;2022-09-09T08:29:10;16.70;99.90
8591;DHT22;4333;48.322;14.340;2022-09-09T08:31:39;16.60;99.90
8591;DHT22;4333;48.322;14.340;2022-09-09T08:34:08;16.60;99.90
8591;DHT22;4333;48.322;14.340;2022-09-09T08:36:40;16.70;99.90
8591;DHT22;4333;48.322;14.340;2022-09-09T08:39:08;16.90;99.90
8591;DHT22;4333;48.322;14.340;2022-09-09T08:44:49;17.00;99.90
8591;DHT22;4333;48.322;14.340;2022-09-09T08:55:42;16.60;99.90
8591;DHT22;4333;48.322;14.340;2022-09-09T08:58:20;16.60;99.90
8591;DHT22;4333;48.322;14.340;2022-09-09T09:11:24;17.10;99.90
8591;DHT22;4333;48.322;14.340;2022-09-09T09:19:22;17.20;99.90
8591;DHT22;4333;48.322;14.340;2022-09-09T09:30:20;16.90;99.90
8591;DHT22;4333;48.322;14.340;2022-09-09T09:33:03;16.80;99.90
8591;DHT22;4333;48.322;14.340;2022-09-09T09:35:35;16.70;99.90
8591;DHT22;4333;48.322;14.340;2022-09-09T09:38:20;16.80;99.90
8591;DHT22;4333;48.322;14.340;2022-09-09T09:40:51;16.90;99.90
8591;DHT22;4333;48.322;14.340;2022-09-09T09:43:29;16.90;99.90
8591;DHT22;4333;48.322;14.340;2022-09-09T09:46:01;16.90;99.90
8591;DHT22;4333;48.322;14.340;2022-09-09T09:48:33;16.80;99.90
8591;DHT22;4333;48.322;14.340;2022-09-09T09:51:07;16.80;99.90
8591;DHT22;4333;48.322;14.340;2022-09-09T09:53:39;17.00;99.90
8591;DHT22;4333;48.322;14.340;2022-09-09T09:56:13;16.90;99.90
8591;DHT22;4333;48.322;14.340;2022-09-09T10:01:32;16.90;99.90
8591;DHT22;4333;48.322;14.340;2022-09-09T10:04:16;17.00;99.90
8591;DHT22;4333;48.322;14.340;2022-09-09T10:06:50;17.10;99.90
8591;DHT22;4333;48.322;14.340;2022-09-09T10:09:23;17.10;99.90
8591;DHT22;4333;48.322;14.340;2022-09-09T10:12:20;17.10;99.90
8591;DHT22;4333;48.322;14.340;2022-09-09T10:18:01;16.90;99.90
8591;DHT22;4333;48.322;14.340;2022-09-09T10:31:48;17.10;99.90
8591;DHT22;4333;48.322;14.340;2022-09-09T10:37:04;17.30;99.90
8591;DHT22;4333;48.322;14.340;2022-09-09T10:39:42;17.40;99.90
8591;DHT22;4333;48.322;14.340;2022-09-09T10:42:16;17.40;99.90
8591;DHT22;4333;48.322;14.340;2022-09-09T10:51:00;17.80;99.90
8591;DHT22;4333;48.322;14.340;2022-09-09T10:56:21;18.10;99.90
8591;DHT22;4333;48.322;14.340;2022-09-09T11:01:27;17.90;99.90
8591;DHT22;4333;48.322;14.340;2022-09-09T11:04:10;17.90;99.90
8591;DHT22;4333;48.322;14.340;2022-09-09T11:06:44;17.90;99.90
8591;DHT22;4333;48.322;14.340;2022-09-09T11:09:22;18.10;99.90
8591;DHT22;4333;48.322;14.340;2022-09-09T11:11:53;18.30;99.90
8591;DHT22;4333;48.322;14.340;2022-09-09T11:14:35;18.40;99.90
8591;DHT22;4333;48.322;14.340;2022-09-09T11:17:18;18.30;99.90
8591;DHT22;4333;48.322;14.340;2022-09-09T11:19:47;18.10;99.90
8591;DHT22;4333;48.322;14.340;2022-09-09T11:27:42;17.50;99.90
8591;DHT22;4333;48.322;14.340;2022-09-09T11:33:31;17.40;99.90
8591;DHT22;4333;48.322;14.340;2022-09-09T11:36:27;17.40;99.90
8591;DHT22;4333;48.322;14.340;2022-09-09T11:38:54;17.30;99.90
8591;DHT22;4333;48.322;14.340;2022-09-09T11:41:23;17.30;99.90
8591;DHT22;4333;48.322;14.340;2022-09-09T11:43:51;17.40;99.90
8591;DHT22;4333;48.322;14.340;2022-09-09T11:46:22;17.40;99.90
8591;DHT22;4333;48.322;14.340;2022-09-09T11:49:03;17.30;99.90
8591;DHT22;4333;48.322;14.340;2022-09-09T11:51:31;17.30;99.90
8591;DHT22;4333;48.322;14.340;2022-09-09T11:54:21;17.30;99.90
8591;DHT22;4333;48.322;14.340;2022-09-09T11:56:48;17.20;99.90
8591;DHT22;4333;48.322;14.340;2022-09-09T11:59:23;17.30;99.90
8591;DHT22;4333;48.322;14.340;2022-09-09T12:02:22;17.40;99.90
8591;DHT22;4333;48.322;14.340;2022-09-09T12:07:54;18.00;99.90
8591;DHT22;4333;48.322;14.340;2022-09-09T12:12:53;18.00;99.90
8591;DHT22;4333;48.322;14.340;2022-09-09T12:17:51;18.20;99.90
8591;DHT22;4333;48.322;14.340;2022-09-09T12:20:35;18.00;99.90
8591;DHT22;4333;48.322;14.340;2022-09-09T12:31:30;18.10;99.90
8591;DHT22;4333;48.322;14.340;2022-09-09T12:34:15;18.20;99.90
8591;DHT22;4333;48.322;14.340;2022-09-09T12:36:46;18.20;99.90
8591;DHT22;4333;48.322;14.340;2022-09-09T12:41:56;18.40;99.90
8591;DHT22;4333;48.322;14.340;2022-09-09T12:44:26;18.20;99.90
8591;DHT22;4333;48.322;14.340;2022-09-09T12:47:00;18.10;99.90
8591;DHT22;4333;48.322;14.340;2022-09-09T12:49:34;18.00;99.90
8591;DHT22;4333;48.322;14.340;2022-09-09T12:52:24;17.90;99.90
8591;DHT22;4333;48.322;14.340;2022-09-09T12:54:54;17.80;99.90
8591;DHT22;4333;48.322;14.340;2022-09-09T12:57:30;17.80;99.90
8591;DHT22;4333;48.322;14.340;2022-09-09T13:00:16;17.80;99.90
8591;DHT22;4333;48.322;14.340;2022-09-09T13:02:53;17.70;99.90
8591;DHT22;4333;48.322;14.340;2022-09-09T13:10:55;17.60;99.90
8591;DHT22;4333;48.322;14.340;2022-09-09T13:13:25;17.70;99.90
8591;DHT22;4333;48.322;14.340;2022-09-09T13:15:58;17.70;99.90
8591;DHT22;4333;48.322;14.340;2022-09-09T13:18:35;17.60;99.90
8591;DHT22;4333;48.322;14.340;2022-09-09T13:21:05;17.60;99.90
8591;DHT22;4333;48.322;14.340;2022-09-09T13:23:38;17.70;99.90
8591;DHT22;4333;48.322;14.340;2022-09-09T13:26:25;17.70;99.90
8591;DHT22;4333;48.322;14.340;2022-09-09T13:29:17;17.90;99.90
8591;DHT22;4333;48.322;14.340;2022-09-09T13:32:04;17.90;99.90
8591;DHT22;4333;48.322;14.340;2022-09-09T13:34:38;17.80;99.90
8591;DHT22;4333;48.322;14.340;2022-09-09T13:37:33;17.90;99.90
8591;DHT22;4333;48.322;14.340;2022-09-09T13:43:45;17.90;99.90
8591;DHT22;4333;48.322;14.340;2022-09-09T13:46:44;17.70;99.90
8591;DHT22;4333;48.322;14.340;2022-09-09T13:49:21;17.80;99.90
8591;DHT22;4333;48.322;14.340;2022-09-09T13:52:08;18.00;99.90
8591;DHT22;4333;48.322;14.340;2022-09-09T13:54:53;18.20;99.90
8591;DHT22;4333;48.322;14.340;2022-09-09T13:57:34;18.30;99.90
8591;DHT22;4333;48.322;14.340;2022-09-09T14:00:17;18.10;99.90
8591;DHT22;4333;48.322;14.340;2022-09-09T14:02:49;17.80;99.90
8591;DHT22;4333;48.322;14.340;2022-09-09T14:05:15;17.70;99.90
8591;DHT22;4333;48.322;14.340;2022-09-09T14:07:53;17.60;99.90
8591;DHT22;4333;48.322;14.340;2022-09-09T14:10:30;17.70;99.90
8591;DHT22;4333;48.322;14.340;2022-09-09T14:12:56;17.70;99.90
8591;DHT22;4333;48.322;14.340;2022-09-09T14:15:24;17.80;99.90
8591;DHT22;4333;48.322;14.340;2022-09-09T14:17:57;17.80;99.90
8591;DHT22;4333;48.322;14.340;2022-09-09T14:20:32;17.70;99.90
8591;DHT22;4333;48.322;14.340;2022-09-09T14:23:11;17.80;99.90
8591;DHT22;4333;48.322;14.340;2022-09-09T14:25:43;17.80;99.90
8591;DHT22;4333;48.322;14.340;2022-09-09T14:28:12;17.80;99.90
8591;DHT22;4333;48.322;14.340;2022-09-09T14:30:42;17.70;99.90
8591;DHT22;4333;48.322;14.340;2022-09-09T14:33:17;17.80;99.90
8591;DHT22;4333;48.322;14.340;2022-09-09T14:35:48;17.70;99.90
8591;DHT22;4333;48.322;14.340;2022-09-09T14:38:23;17.60;99.90
8591;DHT22;4333;48.322;14.340;2022-09-09T14:40:51;17.50;99.90
8591;DHT22;4333;48.322;14.340;2022-09-09T14:43:20;17.40;99.90
8591;DHT22;4333;48.322;14.340;2022-09-09T14:45:51;17.50;99.90
8591;DHT22;4333;48.322;14.340;2022-09-09T14:48:20;17.50;99.90
8591;DHT22;4333;48.322;14.340;2022-09-09T14:50:48;17.40;99.90
8591;DHT22;4333;48.322;14.340;2022-09-09T14:53:17;17.40;99.90
8591;DHT22;4333;48.322;14.340;2022-09-09T14:56:07;17.40;99.90
8591;DHT22;4333;48.322;14.340;2022-09-09T14:58:40;17.40;99.90
8591;DHT22;4333;48.322;14.340;2022-09-09T15:01:13;17.40;99.90
8591;DHT22;4333;48.322;14.340;2022-09-09T15:03:50;17.30;99.90
8591;DHT22;4333;48.322;14.340;2022-09-09T15:06:23;17.30;99.90
8591;DHT22;4333;48.322;14.340;2022-09-09T15:08:55;17.20;99.90
8591;DHT22;4333;48.322;14.340;2022-09-09T15:11:32;17.30;99.90
8591;DHT22;4333;48.322;14.340;2022-09-09T15:14:08;17.30;99.90
8591;DHT22;4333;48.322;14.340;2022-09-09T15:16:42;17.30;99.90
8591;DHT22;4333;48.322;14.340;2022-09-09T15:19:13;17.40;99.90
8591;DHT22;4333;48.322;14.340;2022-09-09T15:21:42;17.40;99.90
8591;DHT22;4333;48.322;14.340;2022-09-09T15:24:11;17.50;99.90
8591;DHT22;4333;48.322;14.340;2022-09-09T15:26:39;17.50;99.90
8591;DHT22;4333;48.322;14.340;2022-09-09T15:29:08;17.50;99.90
8591;DHT22;4333;48.322;14.340;2022-09-09T15:31:35;17.40;99.90
8591;DHT22;4333;48.322;14.340;2022-09-09T15:34:09;17.40;99.90
8591;DHT22;4333;48.322;14.340;2022-09-09T15:36:40;17.30;99.90
8591;DHT22;4333;48.322;14.340;2022-09-09T15:39:12;17.20;99.90
8591;DHT22;4333;48.322;14.340;2022-09-09T15:41:45;17.20;99.90
8591;DHT22;4333;48.322;14.340;2022-09-09T15:44:14;17.20;99.90
8591;DHT22;4333;48.322;14.340;2022-09-09T15:46:49;17.20;99.90
8591;DHT22;4333;48.322;14.340;2022-09-09T15:49:18;17.10;99.90
8591;DHT22;4333;48.322;14.340;2022-09-09T15:51:57;17.10;99.90
8591;DHT22;4333;48.322;14.340;2022-09-09T15:54:25;17.00;99.90
8591;DHT22;4333;48.322;14.340;2022-09-09T15:56:54;17.00;99.90
8591;DHT22;4333;48.322;14.340;2022-09-09T15:59:26;16.90;99.90
8591;DHT22;4333;48.322;14.340;2022-09-09T16:01:57;16.90;99.90
8591;DHT22;4333;48.322;14.340;2022-09-09T16:04:27;16.90;99.90
8591;DHT22;4333;48.322;14.340;2022-09-09T16:07:02;16.80;99.90
8591;DHT22;4333;48.322;14.340;2022-09-09T16:09:36;16.80;99.90
8591;DHT22;4333;48.322;14.340;2022-09-09T16:12:05;16.70;99.90
8591;DHT22;4333;48.322;14.340;2022-09-09T16:14:36;16.80;99.90
8591;DHT22;4333;48.322;14.340;2022-09-09T16:17:06;16.70;99.90
8591;DHT22;4333;48.322;14.340;2022-09-09T16:19:35;16.80;99.90
8591;DHT22;4333;48.322;14.340;2022-09-09T16:22:03;16.80;99.90
8591;DHT22;4333;48.322;14.340;2022-09-09T16:24:31;16.70;99.90
8591;DHT22;4333;48.322;14.340;2022-09-09T16:27:00;16.80;99.90
8591;DHT22;4333;48.322;14.340;2022-09-09T16:29:29;16.80;99.90
8591;DHT22;4333;48.322;14.340;2022-09-09T16:31:57;16.80;99.90
8591;DHT22;4333;48.322;14.340;2022-09-09T16:34:26;16.90;99.90
8591;DHT22;4333;48.322;14.340;2022-09-09T16:36:54;16.80;99.90
8591;DHT22;4333;48.322;14.340;2022-09-09T16:39:24;16.80;99.90
8591;DHT22;4333;48.322;14.340;2022-09-09T16:41:51;16.70;99.90
8591;DHT22;4333;48.322;14.340;2022-09-09T16:44:21;16.70;99.90
8591;DHT22;4333;48.322;14.340;2022-09-09T16:46:51;16.70;99.90
8591;DHT22;4333;48.322;14.340;2022-09-09T16:49:20;16.70;99.90
8591;DHT22;4333;48.322;14.340;2022-09-09T16:51:50;16.70;99.90
8591;DHT22;4333;48.322;14.340;2022-09-09T16:54:19;16.70;99.90
8591;DHT22;4333;48.322;14.340;2022-09-09T16:56:47;16.70;99.90
8591;DHT22;4333;48.322;14.340;2022-09-09T16:59:19;16.60;99.90
8591;DHT22;4333;48.322;14.340;2022-09-09T17:01:47;16.50;99.90
8591;DHT22;4333;48.322;14.340;2022-09-09T17:04:22;16.30;99.90
8591;DHT22;4333;48.322;14.340;2022-09-09T17:06:53;16.20;99.90
8591;DHT22;4333;48.322;14.340;2022-09-09T17:09:20;16.20;99.90
8591;DHT22;4333;48.322;14.340;2022-09-09T17:11:48;16.10;99.90
8591;DHT22;4333;48.322;14.340;2022-09-09T17:14:17;16.10;99.90
8591;DHT22;4333;48.322;14.340;2022-09-09T17:16:45;16.10;99.90
8591;DHT22;4333;48.322;14.340;2022-09-09T17:19:14;16.20;99.90
8591;DHT22;4333;48.322;14.340;2022-09-09T17:21:42;16.20;99.90
8591;DHT22;4333;48.322;14.340;2022-09-09T17:24:11;16.20;99.90
8591;DHT22;4333;48.322;14.340;2022-09-09T17:26:36;16.20;99.90
8591;DHT22;4333;48.322;14.340;2022-09-09T17:29:03;16.20;99.90
8591;DHT22;4333;48.322;14.340;2022-09-09T17:31:30;16.20;99.90
8591;DHT22;4333;48.322;14.340;2022-09-09T17:33:56;16.10;99.90
8591;DHT22;4333;48.322;14.340;2022-09-09T17:36:33;16.00;99.90
8591;DHT22;4333;48.322;14.340;2022-09-09T17:39:00;16.00;99.90
8591;DHT22;4333;48.322;14.340;2022-09-09T17:41:35;16.00;99.90
8591;DHT22;4333;48.322;14.340;2022-09-09T17:44:02;15.90;99.90
8591;DHT22;4333;48.322;14.340;2022-09-09T17:46:37;15.80;99.90
8591;DHT22;4333;48.322;14.340;2022-09-09T17:49:08;15.80;99.90
8591;DHT22;4333;48.322;14.340;2022-09-09T17:51:36;15.70;99.90
8591;DHT22;4333;48.322;14.340;2022-09-09T17:54:09;15.70;99.90
8591;DHT22;4333;48.322;14.340;2022-09-09T17:56:36;15.60;99.90
8591;DHT22;4333;48.322;14.340;2022-09-09T17:59:06;15.60;99.90
8591;DHT22;4333;48.322;14.340;2022-09-09T18:01:37;15.50;99.90
8591;DHT22;4333;48.322;14.340;2022-09-09T18:04:06;15.50;99.90
8591;DHT22;4333;48.322;14.340;2022-09-09T18:06:46;15.50;99.90
8591;DHT22;4333;48.322;14.340;2022-09-09T18:09:21;15.50;99.90
8591;DHT22;4333;48.322;14.340;2022-09-09T18:11:50;15.50;99.90
8591;DHT22;4333;48.322;14.340;2022-09-09T18:14:20;15.50;99.90
8591;DHT22;4333;48.322;14.340;2022-09-09T18:16:47;15.50;99.90
8591;DHT22;4333;48.322;14.340;2022-09-09T18:19:16;15.50;99.90
8591;DHT22;4333;48.322;14.340;2022-09-09T18:21:44;15.40;99.90
8591;DHT22;4333;48.322;14.340;2022-09-09T18:24:14;15.40;99.90
8591;DHT22;4333;48.322;14.340;2022-09-09T18:26:42;15.40;99.90
8591;DHT22;4333;48.322;14.340;2022-09-09T18:29:09;15.40;99.90
8591;DHT22;4333;48.322;14.340;2022-09-09T18:31:38;15.30;99.90
8591;DHT22;4333;48.322;14.340;2022-09-09T18:34:08;15.30;99.90
8591;DHT22;4333;48.322;14.340;2022-09-09T18:36:43;15.30;99.90
8591;DHT22;4333;48.322;14.340;2022-09-09T18:39:10;15.30;99.90
8591;DHT22;4333;48.322;14.340;2022-09-09T18:41:41;15.30;99.90
8591;DHT22;4333;48.322;14.340;2022-09-09T18:44:13;15.30;99.90
8591;DHT22;4333;48.322;14.340;2022-09-09T18:46:44;15.30;99.90
8591;DHT22;4333;48.322;14.340;2022-09-09T18:49:11;15.30;99.90
8591;DHT22;4333;48.322;14.340;2022-09-09T18:51:39;15.30;99.90
8591;DHT22;4333;48.322;14.340;2022-09-09T18:54:31;15.20;99.90
8591;DHT22;4333;48.322;14.340;2022-09-09T18:57:00;15.10;99.90
8591;DHT22;4333;48.322;14.340;2022-09-09T18:59:27;15.10;99.90